sensor_id;sensor_type;location;lat;lon;timestamp;temperature;humidity
19363;DHT22;9817;50.80926400;5.16316200;2023-04-25T00:00:22;10.30;99.90
19363;DHT22;9817;50.80926400;5.16316200;2023-04-25T00:02:48;10.20;99.90
19363;DHT22;9817;50.80926400;5.16316200;2023-04-25T00:05:14;10.10;99.90
19363;DHT22;9817;50.80926400;5.16316200;2023-04-25T00:07:42;10.10;99.90
19363;DHT22;9817;50.80926400;5.16316200;2023-04-25T00:10:09;10.10;99.90
19363;DHT22;9817;50.80926400;5.16316200;2023-04-25T00:12:36;10.10;99.90
19363;DHT22;9817;50.80926400;5.16316200;2023-04-25T00:15:03;10.10;99.90
19363;DHT22;9817;50.80926400;5.16316200;2023-04-25T00:17:29;10.20;99.90
19363;DHT22;9817;50.80926400;5.16316200;2023-04-25T00:19:54;10.10;99.90
19363;DHT22;9817;50.80926400;5.16316200;2023-04-25T00:22:21;10.10;99.90
19363;DHT22;9817;50.80926400;5.16316200;2023-04-25T00:24:47;10.20;99.90
19363;DHT22;9817;50.80926400;5.16316200;2023-04-25T00:27:13;10.20;99.90
19363;DHT22;9817;50.80926400;5.16316200;2023-04-25T00:29:39;10.20;99.90
19363;DHT22;9817;50.80926400;5.16316200;2023-04-25T00:32:04;10.10;99.90
19363;DHT22;9817;50.80926400;5.16316200;2023-04-25T00:34:30;10.10;99.90
19363;DHT22;9817;50.80926400;5.16316200;2023-04-25T00:36:56;10.00;99.90
19363;DHT22;9817;50.80926400;5.16316200;2023-04-25T00:39:22;10.00;99.90
19363;DHT22;9817;50.80926400;5.16316200;2023-04-25T00:41:48;10.10;99.90
19363;DHT22;9817;50.80926400;5.16316200;2023-04-25T00:44:15;10.00;99.90
19363;DHT22;9817;50.80926400;5.16316200;2023-04-25T00:46:42;10.00;99.90
19363;DHT22;9817;50.80926400;5.16316200;2023-04-25T00:49:08;10.10;99.90
19363;DHT22;9817;50.80926400;5.16316200;2023-04-25T00:51:34;10.10;99.90
19363;DHT22;9817;50.80926400;5.16316200;2023-04-25T00:54:01;10.10;99.90
19363;DHT22;9817;50.80926400;5.16316200;2023-04-25T00:56:27;10.10;99.90
19363;DHT22;9817;50.80926400;5.16316200;2023-04-25T00:58:53;10.00;99.90
19363;DHT22;9817;50.80926400;5.16316200;2023-04-25T01:01:22;10.00;99.90
19363;DHT22;9817;50.80926400;5.16316200;2023-04-25T01:03:49;10.00;99.90
19363;DHT22;9817;50.80926400;5.16316200;2023-04-25T01:06:17;10.10;99.90
19363;DHT22;9817;50.80926400;5.16316200;2023-04-25T01:08:43;9.90;99.90
19363;DHT22;9817;50.80926400;5.16316200;2023-04-25T01:11:08;10.10;99.90
19363;DHT22;9817;50.80926400;5.16316200;2023-04-25T01:13:35;10.20;99.90
19363;DHT22;9817;50.80926400;5.16316200;2023-04-25T01:16:02;10.00;99.90
19363;DHT22;9817;50.80926400;5.16316200;2023-04-25T01:18:28;10.00;99.90
19363;DHT22;9817;50.80926400;5.16316200;2023-04-25T01:20:54;10.00;99.90
19363;DHT22;9817;50.80926400;5.16316200;2023-04-25T01:23:21;10.00;99.90
19363;DHT22;9817;50.80926400;5.16316200;2023-04-25T01:25:48;9.90;99.90
19363;DHT22;9817;50.80926400;5.16316200;2023-04-25T01:28:14;9.80;99.90
19363;DHT22;9817;50.80926400;5.16316200;2023-04-25T01:30:40;9.90;99.90
19363;DHT22;9817;50.80926400;5.16316200;2023-04-25T01:33:07;9.80;99.90
19363;DHT22;9817;50.80926400;5.16316200;2023-04-25T01:35:33;9.90;99.90
19363;DHT22;9817;50.80926400;5.16316200;2023-04-25T01:37:59;10.00;99.90
19363;DHT22;9817;50.80926400;5.16316200;2023-04-25T01:40:25;10.00;99.90
19363;DHT22;9817;50.80926400;5.16316200;2023-04-25T01:42:52;9.90;99.90
19363;DHT22;9817;50.80926400;5.16316200;2023-04-25T01:45:18;10.00;99.90
19363;DHT22;9817;50.80926400;5.16316200;2023-04-25T01:47:44;9.90;99.90
19363;DHT22;9817;50.80926400;5.16316200;2023-04-25T01:50:14;9.90;99.90
19363;DHT22;9817;50.80926400;5.16316200;2023-04-25T01:56:03;10.00;99.90
19363;DHT22;9817;50.80926400;5.16316200;2023-04-25T01:58:29;9.90;99.90
19363;DHT22;9817;50.80926400;5.16316200;2023-04-25T02:00:54;9.90;99.90
19363;DHT22;9817;50.80926400;5.16316200;2023-04-25T02:03:20;9.70;99.90
19363;DHT22;9817;50.80926400;5.16316200;2023-04-25T02:05:45;9.60;99.90
19363;DHT22;9817;50.80926400;5.16316200;2023-04-25T02:08:11;9.60;99.90
19363;DHT22;9817;50.80926400;5.16316200;2023-04-25T02:10:37;9.70;99.90
19363;DHT22;9817;50.80926400;5.16316200;2023-04-25T02:13:03;9.70;99.90
19363;DHT22;9817;50.80926400;5.16316200;2023-04-25T02:15:30;9.70;99.90
19363;DHT22;9817;50.80926400;5.16316200;2023-04-25T02:17:56;9.60;99.90
19363;DHT22;9817;50.80926400;5.16316200;2023-04-25T02:20:22;9.60;99.90
19363;DHT22;9817;50.80926400;5.16316200;2023-04-25T02:22:48;9.60;99.90
19363;DHT22;9817;50.80926400;5.16316200;2023-04-25T02:25:14;9.60;99.90
19363;DHT22;9817;50.80926400;5.16316200;2023-04-25T02:27:42;9.60;99.90
19363;DHT22;9817;50.80926400;5.16316200;2023-04-25T02:30:08;9.50;99.90
19363;DHT22;9817;50.80926400;5.16316200;2023-04-25T02:32:34;9.50;99.90
19363;DHT22;9817;50.80926400;5.16316200;2023-04-25T02:35:01;9.50;99.90
19363;DHT22;9817;50.80926400;5.16316200;2023-04-25T02:37:33;9.50;99.90
19363;DHT22;9817;50.80926400;5.16316200;2023-04-25T02:40:00;9.50;99.90
19363;DHT22;9817;50.80926400;5.16316200;2023-04-25T02:42:26;9.50;99.90
19363;DHT22;9817;50.80926400;5.16316200;2023-04-25T02:44:52;9.50;99.90
19363;DHT22;9817;50.80926400;5.16316200;2023-04-25T02:47:17;9.50;99.90
19363;DHT22;9817;50.80926400;5.16316200;2023-04-25T02:49:43;9.50;99.90
19363;DHT22;9817;50.80926400;5.16316200;2023-04-25T02:52:09;9.60;99.90
19363;DHT22;9817;50.80926400;5.16316200;2023-04-25T02:54:34;9.60;99.90
19363;DHT22;9817;50.80926400;5.16316200;2023-04-25T02:57:00;9.60;99.90
19363;DHT22;9817;50.80926400;5.16316200;2023-04-25T02:59:27;9.60;99.90
19363;DHT22;9817;50.80926400;5.16316200;2023-04-25T03:01:53;9.60;99.90
19363;DHT22;9817;50.80926400;5.16316200;2023-04-25T03:04:19;9.50;99.90
19363;DHT22;9817;50.80926400;5.16316200;2023-04-25T03:06:44;9.50;99.90
19363;DHT22;9817;50.80926400;5.16316200;2023-04-25T03:09:10;9.50;99.90
19363;DHT22;9817;50.80926400;5.16316200;2023-04-25T03:11:38;9.40;99.90
19363;DHT22;9817;50.80926400;5.16316200;2023-04-25T03:14:04;9.40;99.90
19363;DHT22;9817;50.80926400;5.16316200;2023-04-25T03:16:29;9.30;99.90
19363;DHT22;9817;50.80926400;5.16316200;2023-04-25T03:18:56;9.20;99.90
19363;DHT22;9817;50.80926400;5.16316200;2023-04-25T03:21:22;9.10;99.90
19363;DHT22;9817;50.80926400;5.16316200;2023-04-25T03:23:48;9.20;99.90
19363;DHT22;9817;50.80926400;5.16316200;2023-04-25T03:26:13;9.10;99.90
19363;DHT22;9817;50.80926400;5.16316200;2023-04-25T03:28:39;9.20;99.90
19363;DHT22;9817;50.80926400;5.16316200;2023-04-25T03:31:05;9.20;99.90
19363;DHT22;9817;50.80926400;5.16316200;2023-04-25T03:33:31;9.30;99.90
19363;DHT22;9817;50.80926400;5.16316200;2023-04-25T03:35:57;9.30;99.90
19363;DHT22;9817;50.80926400;5.16316200;2023-04-25T03:38:23;9.50;99.90
19363;DHT22;9817;50.80926400;5.16316200;2023-04-25T03:40:51;9.50;99.90
19363;DHT22;9817;50.80926400;5.16316200;2023-04-25T03:43:16;9.50;99.90
19363;DHT22;9817;50.80926400;5.16316200;2023-04-25T03:45:42;9.50;99.90
19363;DHT22;9817;50.80926400;5.16316200;2023-04-25T03:48:08;9.50;99.90
19363;DHT22;9817;50.80926400;5.16316200;2023-04-25T03:50:34;9.50;99.90
19363;DHT22;9817;50.80926400;5.16316200;2023-04-25T03:52:59;9.50;99.90
19363;DHT22;9817;50.80926400;5.16316200;2023-04-25T03:55:25;9.50;99.90
19363;DHT22;9817;50.80926400;5.16316200;2023-04-25T03:57:51;9.60;99.90
19363;DHT22;9817;50.80926400;5.16316200;2023-04-25T04:00:16;9.50;99.90
19363;DHT22;9817;50.80926400;5.16316200;2023-04-25T04:02:42;9.60;99.90
19363;DHT22;9817;50.80926400;5.16316200;2023-04-25T04:05:08;9.50;99.90
19363;DHT22;9817;50.80926400;5.16316200;2023-04-25T04:07:34;9.40;99.90
19363;DHT22;9817;50.80926400;5.16316200;2023-04-25T04:10:08;9.40;99.90
19363;DHT22;9817;50.80926400;5.16316200;2023-04-25T04:12:34;9.40;99.90
19363;DHT22;9817;50.80926400;5.16316200;2023-04-25T04:15:04;9.30;99.90
19363;DHT22;9817;50.80926400;5.16316200;2023-04-25T04:17:31;9.30;99.90
19363;DHT22;9817;50.80926400;5.16316200;2023-04-25T04:19:57;9.40;99.90
19363;DHT22;9817;50.80926400;5.16316200;2023-04-25T04:22:23;9.40;99.90
19363;DHT22;9817;50.80926400;5.16316200;2023-04-25T04:24:49;9.30;99.90
19363;DHT22;9817;50.80926400;5.16316200;2023-04-25T04:27:17;9.40;99.90
19363;DHT22;9817;50.80926400;5.16316200;2023-04-25T04:29:43;9.50;99.90
19363;DHT22;9817;50.80926400;5.16316200;2023-04-25T04:32:09;9.50;99.90
19363;DHT22;9817;50.80926400;5.16316200;2023-04-25T04:34:34;9.30;99.90
19363;DHT22;9817;50.80926400;5.16316200;2023-04-25T04:37:00;9.00;99.90
19363;DHT22;9817;50.80926400;5.16316200;2023-04-25T04:39:26;8.70;99.90
19363;DHT22;9817;50.80926400;5.16316200;2023-04-25T04:41:52;8.40;99.90
19363;DHT22;9817;50.80926400;5.16316200;2023-04-25T04:44:17;8.30;99.90
19363;DHT22;9817;50.80926400;5.16316200;2023-04-25T04:46:43;8.30;99.90
19363;DHT22;9817;50.80926400;5.16316200;2023-04-25T04:49:10;8.20;99.90
19363;DHT22;9817;50.80926400;5.16316200;2023-04-25T04:51:37;8.20;99.90
19363;DHT22;9817;50.80926400;5.16316200;2023-04-25T04:54:03;8.10;99.90
19363;DHT22;9817;50.80926400;5.16316200;2023-04-25T04:56:29;8.10;99.90
19363;DHT22;9817;50.80926400;5.16316200;2023-04-25T04:58:57;8.10;99.90
19363;DHT22;9817;50.80926400;5.16316200;2023-04-25T05:01:23;8.20;99.90
19363;DHT22;9817;50.80926400;5.16316200;2023-04-25T05:03:49;8.20;99.90
19363;DHT22;9817;50.80926400;5.16316200;2023-04-25T05:06:16;8.00;99.90
19363;DHT22;9817;50.80926400;5.16316200;2023-04-25T05:08:41;7.90;99.90
19363;DHT22;9817;50.80926400;5.16316200;2023-04-25T05:11:07;7.90;99.90
19363;DHT22;9817;50.80926400;5.16316200;2023-04-25T05:13:32;7.90;99.90
19363;DHT22;9817;50.80926400;5.16316200;2023-04-25T05:15:58;8.10;99.90
19363;DHT22;9817;50.80926400;5.16316200;2023-04-25T05:18:24;8.20;99.90
19363;DHT22;9817;50.80926400;5.16316200;2023-04-25T05:20:49;8.20;99.90
19363;DHT22;9817;50.80926400;5.16316200;2023-04-25T05:23:15;8.40;99.90
19363;DHT22;9817;50.80926400;5.16316200;2023-04-25T05:25:41;8.50;99.90
19363;DHT22;9817;50.80926400;5.16316200;2023-04-25T05:28:07;8.60;99.90
19363;DHT22;9817;50.80926400;5.16316200;2023-04-25T05:30:34;8.60;99.90
19363;DHT22;9817;50.80926400;5.16316200;2023-04-25T05:32:59;8.80;99.90
19363;DHT22;9817;50.80926400;5.16316200;2023-04-25T05:35:26;8.80;99.90
19363;DHT22;9817;50.80926400;5.16316200;2023-04-25T05:37:51;8.90;99.90
19363;DHT22;9817;50.80926400;5.16316200;2023-04-25T05:40:17;9.00;99.90
19363;DHT22;9817;50.80926400;5.16316200;2023-04-25T05:42:42;9.00;99.90
19363;DHT22;9817;50.80926400;5.16316200;2023-04-25T05:45:08;9.00;99.90
19363;DHT22;9817;50.80926400;5.16316200;2023-04-25T05:47:34;9.10;99.90
19363;DHT22;9817;50.80926400;5.16316200;2023-04-25T05:50:00;9.00;99.90
19363;DHT22;9817;50.80926400;5.16316200;2023-04-25T05:52:26;9.00;99.90
19363;DHT22;9817;50.80926400;5.16316200;2023-04-25T05:54:52;9.30;99.90
19363;DHT22;9817;50.80926400;5.16316200;2023-04-25T05:57:22;9.30;99.90
19363;DHT22;9817;50.80926400;5.16316200;2023-04-25T05:59:48;9.30;99.90
19363;DHT22;9817;50.80926400;5.16316200;2023-04-25T06:02:14;9.30;99.90
19363;DHT22;9817;50.80926400;5.16316200;2023-04-25T06:04:39;9.40;99.90
19363;DHT22;9817;50.80926400;5.16316200;2023-04-25T06:07:05;9.40;99.90
19363;DHT22;9817;50.80926400;5.16316200;2023-04-25T06:09:31;9.40;99.90
19363;DHT22;9817;50.80926400;5.16316200;2023-04-25T06:11:56;9.50;99.90
19363;DHT22;9817;50.80926400;5.16316200;2023-04-25T06:14:22;9.40;99.90
19363;DHT22;9817;50.80926400;5.16316200;2023-04-25T06:16:48;9.40;99.90
19363;DHT22;9817;50.80926400;5.16316200;2023-04-25T06:19:13;9.40;99.90
19363;DHT22;9817;50.80926400;5.16316200;2023-04-25T06:21:39;9.40;99.90
19363;DHT22;9817;50.80926400;5.16316200;2023-04-25T06:24:04;9.40;99.90
19363;DHT22;9817;50.80926400;5.16316200;2023-04-25T06:26:30;9.40;99.90
19363;DHT22;9817;50.80926400;5.16316200;2023-04-25T06:28:56;9.30;99.90
19363;DHT22;9817;50.80926400;5.16316200;2023-04-25T06:31:21;9.30;99.90
19363;DHT22;9817;50.80926400;5.16316200;2023-04-25T06:33:47;9.20;99.90
19363;DHT22;9817;50.80926400;5.16316200;2023-04-25T06:36:14;9.10;99.90
19363;DHT22;9817;50.80926400;5.16316200;2023-04-25T06:38:39;9.20;99.90
19363;DHT22;9817;50.80926400;5.16316200;2023-04-25T06:41:05;9.20;99.90
19363;DHT22;9817;50.80926400;5.16316200;2023-04-25T06:43:31;9.30;99.90
19363;DHT22;9817;50.80926400;5.16316200;2023-04-25T06:45:59;9.40;99.90
19363;DHT22;9817;50.80926400;5.16316200;2023-04-25T06:48:26;9.70;99.90
19363;DHT22;9817;50.80926400;5.16316200;2023-04-25T06:50:52;9.90;99.90
19363;DHT22;9817;50.80926400;5.16316200;2023-04-25T06:53:18;10.20;99.90
19363;DHT22;9817;50.80926400;5.16316200;2023-04-25T06:55:44;10.40;99.90
19363;DHT22;9817;50.80926400;5.16316200;2023-04-25T06:58:09;10.60;99.90
19363;DHT22;9817;50.80926400;5.16316200;2023-04-25T07:00:35;10.50;99.90
19363;DHT22;9817;50.80926400;5.16316200;2023-04-25T07:03:01;10.50;99.90
19363;DHT22;9817;50.80926400;5.16316200;2023-04-25T07:05:27;10.50;99.90
19363;DHT22;9817;50.80926400;5.16316200;2023-04-25T07:07:53;10.20;99.90
19363;DHT22;9817;50.80926400;5.16316200;2023-04-25T07:10:18;10.30;99.90
19363;DHT22;9817;50.80926400;5.16316200;2023-04-25T07:12:44;10.50;99.90
19363;DHT22;9817;50.80926400;5.16316200;2023-04-25T07:15:10;10.60;99.90
19363;DHT22;9817;50.80926400;5.16316200;2023-04-25T07:17:37;10.50;99.90
19363;DHT22;9817;50.80926400;5.16316200;2023-04-25T07:20:03;10.60;99.90
19363;DHT22;9817;50.80926400;5.16316200;2023-04-25T07:22:29;10.70;99.90
19363;DHT22;9817;50.80926400;5.16316200;2023-04-25T07:24:55;10.50;99.90
19363;DHT22;9817;50.80926400;5.16316200;2023-04-25T07:27:21;10.60;99.90
19363;DHT22;9817;50.80926400;5.16316200;2023-04-25T07:29:46;10.70;99.90
19363;DHT22;9817;50.80926400;5.16316200;2023-04-25T07:32:12;11.00;99.90
19363;DHT22;9817;50.80926400;5.16316200;2023-04-25T07:34:39;11.30;99.90
19363;DHT22;9817;50.80926400;5.16316200;2023-04-25T07:37:05;11.70;99.90
19363;DHT22;9817;50.80926400;5.16316200;2023-04-25T07:39:31;11.90;99.90
19363;DHT22;9817;50.80926400;5.16316200;2023-04-25T07:41:56;12.20;99.90
19363;DHT22;9817;50.80926400;5.16316200;2023-04-25T07:44:24;12.20;99.90
19363;DHT22;9817;50.80926400;5.16316200;2023-04-25T07:46:49;12.20;99.90
19363;DHT22;9817;50.80926400;5.16316200;2023-04-25T07:49:15;12.50;99.90
19363;DHT22;9817;50.80926400;5.16316200;2023-04-25T07:51:41;12.60;99.90
19363;DHT22;9817;50.80926400;5.16316200;2023-04-25T07:54:09;12.50;99.90
19363;DHT22;9817;50.80926400;5.16316200;2023-04-25T07:56:35;12.60;99.90
19363;DHT22;9817;50.80926400;5.16316200;2023-04-25T07:59:01;12.40;99.90
19363;DHT22;9817;50.80926400;5.16316200;2023-04-25T08:01:26;12.40;99.90
19363;DHT22;9817;50.80926400;5.16316200;2023-04-25T08:03:52;12.20;99.90
19363;DHT22;9817;50.80926400;5.16316200;2023-04-25T08:06:18;12.60;99.90
19363;DHT22;9817;50.80926400;5.16316200;2023-04-25T08:08:44;12.90;99.90
19363;DHT22;9817;50.80926400;5.16316200;2023-04-25T08:11:10;13.00;99.90
19363;DHT22;9817;50.80926400;5.16316200;2023-04-25T08:13:36;13.20;99.90
19363;DHT22;9817;50.80926400;5.16316200;2023-04-25T08:16:02;13.10;99.90
19363;DHT22;9817;50.80926400;5.16316200;2023-04-25T08:18:27;13.10;99.90
19363;DHT22;9817;50.80926400;5.16316200;2023-04-25T08:20:53;13.00;99.90
19363;DHT22;9817;50.80926400;5.16316200;2023-04-25T08:23:19;12.80;99.90
19363;DHT22;9817;50.80926400;5.16316200;2023-04-25T08:25:44;12.80;99.90
19363;DHT22;9817;50.80926400;5.16316200;2023-04-25T08:28:10;12.60;99.90
19363;DHT22;9817;50.80926400;5.16316200;2023-04-25T08:30:36;12.50;99.90
19363;DHT22;9817;50.80926400;5.16316200;2023-04-25T08:33:02;12.10;99.90
19363;DHT22;9817;50.80926400;5.16316200;2023-04-25T08:35:28;11.80;99.90
19363;DHT22;9817;50.80926400;5.16316200;2023-04-25T08:37:54;11.80;99.90
19363;DHT22;9817;50.80926400;5.16316200;2023-04-25T08:40:22;11.80;99.90
19363;DHT22;9817;50.80926400;5.16316200;2023-04-25T08:42:53;11.60;99.90
19363;DHT22;9817;50.80926400;5.16316200;2023-04-25T08:45:18;11.50;99.90
19363;DHT22;9817;50.80926400;5.16316200;2023-04-25T08:47:45;11.40;99.90
19363;DHT22;9817;50.80926400;5.16316200;2023-04-25T08:50:14;11.60;99.90
19363;DHT22;9817;50.80926400;5.16316200;2023-04-25T08:52:44;11.70;99.90
19363;DHT22;9817;50.80926400;5.16316200;2023-04-25T08:55:12;11.70;99.90
19363;DHT22;9817;50.80926400;5.16316200;2023-04-25T08:57:39;11.50;99.90
19363;DHT22;9817;50.80926400;5.16316200;2023-04-25T09:00:07;11.30;99.90
19363;DHT22;9817;50.80926400;5.16316200;2023-04-25T09:02:33;11.00;99.90
19363;DHT22;9817;50.80926400;5.16316200;2023-04-25T09:04:59;10.80;99.90
19363;DHT22;9817;50.80926400;5.16316200;2023-04-25T09:07:25;10.50;99.90
19363;DHT22;9817;50.80926400;5.16316200;2023-04-25T09:09:51;10.50;99.90
19363;DHT22;9817;50.80926400;5.16316200;2023-04-25T09:12:20;10.30;99.90
19363;DHT22;9817;50.80926400;5.16316200;2023-04-25T09:15:05;10.00;99.90
19363;DHT22;9817;50.80926400;5.16316200;2023-04-25T09:17:31;9.50;99.90
19363;DHT22;9817;50.80926400;5.16316200;2023-04-25T09:20:09;9.10;99.90
19363;DHT22;9817;50.80926400;5.16316200;2023-04-25T09:22:36;9.20;99.90
19363;DHT22;9817;50.80926400;5.16316200;2023-04-25T09:25:07;9.10;99.90
19363;DHT22;9817;50.80926400;5.16316200;2023-04-25T09:27:33;9.30;99.90
19363;DHT22;9817;50.80926400;5.16316200;2023-04-25T09:29:59;9.70;99.90
19363;DHT22;9817;50.80926400;5.16316200;2023-04-25T09:32:27;10.20;99.90
19363;DHT22;9817;50.80926400;5.16316200;2023-04-25T09:34:57;10.30;99.90
19363;DHT22;9817;50.80926400;5.16316200;2023-04-25T09:37:28;10.70;99.90
19363;DHT22;9817;50.80926400;5.16316200;2023-04-25T09:39:59;11.10;99.90
19363;DHT22;9817;50.80926400;5.16316200;2023-04-25T09:42:27;11.60;99.90
19363;DHT22;9817;50.80926400;5.16316200;2023-04-25T09:44:55;12.40;99.90
19363;DHT22;9817;50.80926400;5.16316200;2023-04-25T09:47:24;12.90;99.90
19363;DHT22;9817;50.80926400;5.16316200;2023-04-25T09:49:51;14.30;99.90
19363;DHT22;9817;50.80926400;5.16316200;2023-04-25T09:52:19;15.60;99.90
19363;DHT22;9817;50.80926400;5.16316200;2023-04-25T09:54:45;16.10;99.90
19363;DHT22;9817;50.80926400;5.16316200;2023-04-25T09:57:13;18.90;99.90
19363;DHT22;9817;50.80926400;5.16316200;2023-04-25T09:59:47;20.70;99.90
19363;DHT22;9817;50.80926400;5.16316200;2023-04-25T10:02:20;22.30;99.90
19363;DHT22;9817;50.80926400;5.16316200;2023-04-25T10:04:51;23.40;97.20
19363;DHT22;9817;50.80926400;5.16316200;2023-04-25T10:07:19;23.90;94.10
19363;DHT22;9817;50.80926400;5.16316200;2023-04-25T10:09:48;23.50;93.20
19363;DHT22;9817;50.80926400;5.16316200;2023-04-25T10:12:16;23.30;92.80
19363;DHT22;9817;50.80926400;5.16316200;2023-04-25T10:14:42;22.00;92.40
19363;DHT22;9817;50.80926400;5.16316200;2023-04-25T10:17:10;20.60;94.40
19363;DHT22;9817;50.80926400;5.16316200;2023-04-25T10:19:37;19.00;96.70
19363;DHT22;9817;50.80926400;5.16316200;2023-04-25T10:22:17;17.60;99.20
19363;DHT22;9817;50.80926400;5.16316200;2023-04-25T10:24:44;16.60;99.90
19363;DHT22;9817;50.80926400;5.16316200;2023-04-25T10:27:12;15.90;99.90
19363;DHT22;9817;50.80926400;5.16316200;2023-04-25T10:29:38;15.10;99.90
19363;DHT22;9817;50.80926400;5.16316200;2023-04-25T10:32:04;14.40;99.90
19363;DHT22;9817;50.80926400;5.16316200;2023-04-25T10:34:39;14.30;99.90
19363;DHT22;9817;50.80926400;5.16316200;2023-04-25T10:37:08;13.70;99.90
19363;DHT22;9817;50.80926400;5.16316200;2023-04-25T10:39:34;13.30;99.90
19363;DHT22;9817;50.80926400;5.16316200;2023-04-25T10:42:01;13.10;99.90
19363;DHT22;9817;50.80926400;5.16316200;2023-04-25T10:44:29;13.10;99.90
19363;DHT22;9817;50.80926400;5.16316200;2023-04-25T10:46:59;13.00;99.90
19363;DHT22;9817;50.80926400;5.16316200;2023-04-25T10:54:46;13.10;99.90
19363;DHT22;9817;50.80926400;5.16316200;2023-04-25T11:00:01;13.60;99.90
19363;DHT22;9817;50.80926400;5.16316200;2023-04-25T11:02:30;13.60;99.90
19363;DHT22;9817;50.80926400;5.16316200;2023-04-25T11:04:56;13.40;99.90
19363;DHT22;9817;50.80926400;5.16316200;2023-04-25T11:07:54;13.10;99.90
19363;DHT22;9817;50.80926400;5.16316200;2023-04-25T11:10:32;12.70;99.90
19363;DHT22;9817;50.80926400;5.16316200;2023-04-25T11:12:58;12.70;99.90
19363;DHT22;9817;50.80926400;5.16316200;2023-04-25T11:15:25;13.00;99.90
19363;DHT22;9817;50.80926400;5.16316200;2023-04-25T11:17:55;13.60;99.90
19363;DHT22;9817;50.80926400;5.16316200;2023-04-25T11:20:21;13.30;99.90
19363;DHT22;9817;50.80926400;5.16316200;2023-04-25T11:22:48;13.10;99.90
19363;DHT22;9817;50.80926400;5.16316200;2023-04-25T11:25:15;13.00;99.90
19363;DHT22;9817;50.80926400;5.16316200;2023-04-25T11:27:55;13.00;99.90
19363;DHT22;9817;50.80926400;5.16316200;2023-04-25T11:30:23;13.20;99.90
19363;DHT22;9817;50.80926400;5.16316200;2023-04-25T11:32:49;13.30;99.90
19363;DHT22;9817;50.80926400;5.16316200;2023-04-25T11:35:15;13.60;99.90
19363;DHT22;9817;50.80926400;5.16316200;2023-04-25T11:37:43;14.10;99.90
19363;DHT22;9817;50.80926400;5.16316200;2023-04-25T11:40:10;14.10;99.90
19363;DHT22;9817;50.80926400;5.16316200;2023-04-25T11:42:37;13.80;99.90
19363;DHT22;9817;50.80926400;5.16316200;2023-04-25T11:45:04;13.80;99.90
19363;DHT22;9817;50.80926400;5.16316200;2023-04-25T11:47:31;13.90;99.90
19363;DHT22;9817;50.80926400;5.16316200;2023-04-25T11:50:01;14.40;99.90
19363;DHT22;9817;50.80926400;5.16316200;2023-04-25T11:55:13;14.60;99.90
19363;DHT22;9817;50.80926400;5.16316200;2023-04-25T11:57:40;14.50;99.90
19363;DHT22;9817;50.80926400;5.16316200;2023-04-25T12:02:52;14.40;99.90
19363;DHT22;9817;50.80926400;5.16316200;2023-04-25T12:05:18;14.10;99.90
19363;DHT22;9817;50.80926400;5.16316200;2023-04-25T12:07:45;14.40;99.90
19363;DHT22;9817;50.80926400;5.16316200;2023-04-25T12:10:16;14.10;99.90
19363;DHT22;9817;50.80926400;5.16316200;2023-04-25T12:12:43;14.10;99.90
19363;DHT22;9817;50.80926400;5.16316200;2023-04-25T12:15:23;14.30;99.90
19363;DHT22;9817;50.80926400;5.16316200;2023-04-25T12:17:50;14.30;99.90
19363;DHT22;9817;50.80926400;5.16316200;2023-04-25T12:20:17;14.10;99.90
19363;DHT22;9817;50.80926400;5.16316200;2023-04-25T12:22:46;14.00;99.90
19363;DHT22;9817;50.80926400;5.16316200;2023-04-25T12:25:35;14.00;99.90
19363;DHT22;9817;50.80926400;5.16316200;2023-04-25T12:31:06;14.40;99.90
19363;DHT22;9817;50.80926400;5.16316200;2023-04-25T12:33:36;14.10;99.90
19363;DHT22;9817;50.80926400;5.16316200;2023-04-25T12:36:03;13.80;99.90
19363;DHT22;9817;50.80926400;5.16316200;2023-04-25T12:38:36;13.20;99.90
19363;DHT22;9817;50.80926400;5.16316200;2023-04-25T12:41:02;12.60;99.90
19363;DHT22;9817;50.80926400;5.16316200;2023-04-25T12:43:28;12.30;99.90
19363;DHT22;9817;50.80926400;5.16316200;2023-04-25T12:45:55;11.90;99.90
19363;DHT22;9817;50.80926400;5.16316200;2023-04-25T12:48:21;11.60;99.90
19363;DHT22;9817;50.80926400;5.16316200;2023-04-25T12:50:47;11.40;99.90
19363;DHT22;9817;50.80926400;5.16316200;2023-04-25T12:53:19;11.40;99.90
19363;DHT22;9817;50.80926400;5.16316200;2023-04-25T12:55:46;11.20;99.90
19363;DHT22;9817;50.80926400;5.16316200;2023-04-25T12:58:16;11.20;99.90
19363;DHT22;9817;50.80926400;5.16316200;2023-04-25T13:00:43;11.50;99.90
19363;DHT22;9817;50.80926400;5.16316200;2023-04-25T13:03:09;11.80;99.90
19363;DHT22;9817;50.80926400;5.16316200;2023-04-25T13:05:36;11.90;99.90
19363;DHT22;9817;50.80926400;5.16316200;2023-04-25T13:08:02;12.20;99.90
19363;DHT22;9817;50.80926400;5.16316200;2023-04-25T13:10:28;12.50;99.90
19363;DHT22;9817;50.80926400;5.16316200;2023-04-25T13:12:53;13.00;99.90
19363;DHT22;9817;50.80926400;5.16316200;2023-04-25T13:15:19;13.40;99.90
19363;DHT22;9817;50.80926400;5.16316200;2023-04-25T13:17:45;13.70;99.90
19363;DHT22;9817;50.80926400;5.16316200;2023-04-25T13:20:11;14.40;99.90
19363;DHT22;9817;50.80926400;5.16316200;2023-04-25T13:22:39;14.70;99.90
19363;DHT22;9817;50.80926400;5.16316200;2023-04-25T13:25:07;14.80;99.90
19363;DHT22;9817;50.80926400;5.16316200;2023-04-25T13:27:34;14.40;99.90
19363;DHT22;9817;50.80926400;5.16316200;2023-04-25T13:30:01;14.10;99.90
19363;DHT22;9817;50.80926400;5.16316200;2023-04-25T13:32:30;14.00;99.90
19363;DHT22;9817;50.80926400;5.16316200;2023-04-25T13:35:12;13.60;99.90
19363;DHT22;9817;50.80926400;5.16316200;2023-04-25T13:37:38;13.30;99.90
19363;DHT22;9817;50.80926400;5.16316200;2023-04-25T13:40:07;12.90;99.90
19363;DHT22;9817;50.80926400;5.16316200;2023-04-25T13:42:34;12.90;99.90
19363;DHT22;9817;50.80926400;5.16316200;2023-04-25T13:45:00;12.70;99.90
19363;DHT22;9817;50.80926400;5.16316200;2023-04-25T13:47:27;12.60;99.90
19363;DHT22;9817;50.80926400;5.16316200;2023-04-25T13:49:53;12.40;99.90
19363;DHT22;9817;50.80926400;5.16316200;2023-04-25T13:52:19;12.60;99.90
19363;DHT22;9817;50.80926400;5.16316200;2023-04-25T13:54:46;12.60;99.90
19363;DHT22;9817;50.80926400;5.16316200;2023-04-25T13:57:12;12.70;99.90